Aviation Digital Data Service (ADDS)

Output produced by METARs form (2101 UTC 19 February 2017)
found at http://www.aviationweather.gov/adds/metars/
 
KESN 192055Z 30006KT 10SM SKC 21/05 A2994